createdAt,value
2022-10-28T00:00:24.349Z,99993.41
2022-10-28T00:03:45.031Z,99983.81
2022-10-28T00:07:01.247Z,99990.20
2022-10-28T00:10:18.644Z,99983.39
2022-10-28T00:13:34.722Z,99989.22
2022-10-28T00:16:52.807Z,99990.05
2022-10-28T00:20:09.260Z,99991.86
2022-10-28T00:23:25.297Z,99984.34
2022-10-28T00:26:44.319Z,99987.95
2022-10-28T00:30:00.843Z,99976.66
2022-10-28T00:33:17.669Z,99976.81
2022-10-28T00:36:39.687Z,99975.27
2022-10-28T00:39:55.784Z,99962.77
2022-10-28T00:43:12.213Z,99960.24
2022-10-28T00:46:36.215Z,99954.53
2022-10-28T00:49:54.206Z,99949.39
2022-10-28T00:53:15.140Z,99951.89
2022-10-28T00:56:37.551Z,99950.51
2022-10-28T00:59:57.657Z,99946.33
2022-10-28T01:03:14.772Z,99943.84
2022-10-28T01:06:37.669Z,99942.02
2022-10-28T01:09:57.738Z,99944.09
2022-10-28T01:13:19.782Z,99942.70
2022-10-28T01:16:41.807Z,99931.70
2022-10-28T01:20:31.734Z,99931.28
2022-10-28T01:23:57.365Z,99925.44
2022-10-28T01:28:07.130Z,99934.46
2022-10-28T01:31:35.076Z,99920.27
2022-10-28T01:34:57.130Z,99923.02
2022-10-28T01:38:29.506Z,99918.59
2022-10-28T01:41:52.134Z,99916.63
2022-10-28T01:45:15.969Z,99919.27
2022-10-28T01:51:58.942Z,99914.91
2022-10-28T01:55:20.908Z,99909.88
2022-10-28T01:58:40.269Z,99913.38
2022-10-28T02:01:57.844Z,99916.55
2022-10-28T02:05:46.489Z,99911.52
2022-10-28T02:09:25.816Z,99898.31
2022-10-28T02:12:45.100Z,99901.42
2022-10-28T02:16:05.928Z,99893.61
2022-10-28T02:19:30.396Z,99887.19
2022-10-28T02:22:53.471Z,99867.47
2022-10-28T02:26:14.684Z,99876.09
2022-10-28T02:29:37.088Z,99873.84
2022-10-28T02:32:57.663Z,99871.34
2022-10-28T02:36:18.763Z,99867.17
2022-10-28T02:39:39.437Z,99854.38
2022-10-28T02:42:59.884Z,99855.91
2022-10-28T02:46:17.915Z,99853.27
2022-10-28T02:49:36.890Z,99850.30
2022-10-28T02:52:57.412Z,99853.80
2022-10-28T02:56:16.232Z,99863.91
2022-10-28T02:59:34.531Z,99867.52
2022-10-28T03:02:52.213Z,99869.14
2022-10-28T03:06:11.039Z,99874.93
2022-10-28T03:09:27.116Z,99874.35
2022-10-28T03:12:43.209Z,99861.11
2022-10-28T03:16:04.439Z,99859.57
2022-10-28T03:19:20.787Z,99849.88
2022-10-28T03:22:39.636Z,99854.58
2022-10-28T03:25:55.905Z,99842.66
2022-10-28T03:29:11.999Z,99847.92
2022-10-28T03:32:28.363Z,99849.74
2022-10-28T03:35:45.822Z,99852.63
2022-10-28T03:39:01.920Z,99849.30
2022-10-28T03:42:18.072Z,99855.97
2022-10-28T03:45:34.208Z,99858.23
2022-10-28T03:48:50.701Z,99860.16
2022-10-28T03:52:07.063Z,99866.97
2022-10-28T03:55:24.545Z,99853.20
2022-10-28T03:58:41.424Z,99853.06
2022-10-28T04:01:57.702Z,99854.60
2022-10-28T04:05:15.289Z,99839.50
2022-10-28T04:08:31.591Z,99846.83
2022-10-28T04:11:47.721Z,99840.02
2022-10-28T04:15:03.913Z,99833.20
2022-10-28T04:18:20.540Z,99837.24
2022-10-28T04:21:37.829Z,99837.38
2022-10-28T04:24:58.091Z,99835.46
2022-10-28T04:28:14.848Z,99840.73
2022-10-28T04:31:31.050Z,99830.84
2022-10-28T04:35:00.022Z,99827.50
2022-10-28T04:38:18.251Z,99823.56
2022-10-28T04:41:34.727Z,99828.59
2022-10-28T04:44:50.706Z,99816.38
2022-10-28T04:48:08.725Z,99815.80
2022-10-28T04:51:25.013Z,99805.63
2022-10-28T04:54:42.227Z,99810.66
2022-10-28T04:58:12.372Z,99806.63
2022-10-28T05:01:30.452Z,99809.27
2022-10-28T05:04:47.169Z,99809.37
2022-10-28T05:08:03.252Z,99812.41
2022-10-28T05:11:19.860Z,99807.39
2022-10-28T05:14:38.601Z,99805.02
2022-10-28T05:17:55.763Z,99802.63
2022-10-28T05:21:13.132Z,99800.00
2022-10-28T05:24:32.858Z,99803.79
2022-10-28T05:27:51.835Z,99804.95
2022-10-28T05:31:10.176Z,99804.09
2022-10-28T05:34:27.018Z,99815.48
2022-10-28T05:37:48.545Z,99809.20
2022-10-28T05:41:11.219Z,99810.40
2022-10-28T05:44:33.981Z,99813.00
2022-10-28T05:47:56.043Z,99811.42
2022-10-28T05:51:16.675Z,99816.01
2022-10-28T05:54:34.409Z,99815.16
2022-10-28T05:57:52.050Z,99815.63
2022-10-28T06:01:42.636Z,99816.52
2022-10-28T06:05:08.399Z,99820.17
2022-10-28T06:09:04.019Z,99808.96
2022-10-28T06:12:19.276Z,99810.02
2022-10-28T06:15:43.135Z,99806.45
2022-10-28T06:18:59.716Z,99804.82
2022-10-28T06:22:22.530Z,99799.57
2022-10-28T06:25:40.021Z,99799.80
2022-10-28T06:28:57.335Z,99815.37
2022-10-28T06:32:16.915Z,99804.48
2022-10-28T06:35:37.021Z,99815.12
2022-10-28T06:38:53.821Z,99818.36
2022-10-28T06:42:11.132Z,99826.72
2022-10-28T06:45:29.579Z,99829.83
2022-10-28T06:48:47.989Z,99830.78
2022-10-28T06:52:04.301Z,99829.94
2022-10-28T06:55:21.512Z,99832.58
2022-10-28T06:58:46.964Z,99844.30
2022-10-28T07:02:06.242Z,99842.30
2022-10-28T07:05:27.356Z,99840.96
2022-10-28T07:08:48.154Z,99842.92
2022-10-28T07:12:07.120Z,99845.50
2022-10-28T07:58:12.446Z,99842.06
2022-10-28T08:01:46.608Z,99841.30
2022-10-28T08:05:25.389Z,99835.86
2022-10-28T08:14:25.598Z,99833.00
2022-10-28T08:18:04.145Z,99832.61
2022-10-28T08:21:40.300Z,99834.54
2022-10-28T08:25:14.574Z,99841.84
2022-10-28T08:28:58.531Z,99828.81
2022-10-28T08:32:24.625Z,99832.43
2022-10-28T08:35:53.799Z,99832.73
2022-10-28T08:39:11.862Z,99836.52
2022-10-28T08:42:47.872Z,99835.94
2022-10-28T08:46:09.620Z,99830.74
2022-10-28T08:49:30.767Z,99827.26
2022-10-28T08:52:52.264Z,99825.45
2022-10-28T08:56:16.439Z,99824.48
2022-10-28T08:59:37.387Z,99828.59
2022-10-28T09:09:26.926Z,99825.46
2022-10-28T09:12:49.615Z,99824.61
2022-10-28T09:16:13.724Z,99830.06
2022-10-28T09:19:44.832Z,99818.72
2022-10-28T09:23:08.130Z,99824.63
2022-10-28T09:26:52.382Z,99822.14
2022-10-28T09:30:20.454Z,99827.23
2022-10-28T09:33:53.940Z,99813.42
2022-10-28T09:37:16.873Z,99827.00
2022-10-28T09:40:36.522Z,99822.74
2022-10-28T09:43:56.693Z,99818.23
2022-10-28T09:47:21.227Z,99830.04
2022-10-28T09:50:40.204Z,99835.67
2022-10-28T09:54:01.392Z,99820.84
2022-10-28T09:57:17.692Z,99823.78
2022-10-28T10:00:33.990Z,99820.30
2022-10-28T10:03:50.724Z,99817.81
2022-10-28T10:07:11.504Z,99815.30
2022-10-28T10:10:32.358Z,99811.38
2022-10-28T10:13:51.174Z,99815.27
2022-10-28T10:17:11.430Z,99810.73
2022-10-28T10:20:28.921Z,99809.24
2022-10-28T10:23:46.231Z,99811.30
2022-10-28T10:27:03.654Z,99808.58
2022-10-28T10:30:43.629Z,99813.09
2022-10-28T10:34:05.471Z,99808.48
2022-10-28T10:37:28.169Z,99810.72
2022-10-28T10:40:49.350Z,99813.39
2022-10-28T10:47:31.088Z,99798.00
2022-10-28T10:50:48.348Z,99794.27
2022-10-28T10:54:06.828Z,99787.63
2022-10-28T10:57:28.431Z,99793.41
2022-10-28T11:00:50.149Z,99785.34
2022-10-28T11:04:10.266Z,99782.20
2022-10-28T11:07:26.428Z,99796.05
2022-10-28T11:10:43.100Z,99790.05
2022-10-28T11:14:09.980Z,99781.78
2022-10-28T11:17:42.999Z,99783.20
2022-10-28T11:21:04.422Z,99779.25
2022-10-28T11:24:37.507Z,99779.42
2022-10-28T11:28:04.599Z,99773.00
2022-10-28T11:31:38.280Z,99774.45
2022-10-28T11:35:26.327Z,99778.16
2022-10-28T11:38:56.564Z,99774.45
2022-10-28T11:42:24.704Z,99765.93
2022-10-28T11:45:48.697Z,99767.36
2022-10-28T11:49:48.619Z,99771.09
2022-10-28T11:53:36.570Z,99767.19
2022-10-28T11:56:58.298Z,99764.31
2022-10-28T12:00:36.294Z,99761.68
2022-10-28T12:04:10.694Z,99758.37
2022-10-28T12:07:44.370Z,99754.64
2022-10-28T12:11:21.981Z,99743.03
2022-10-28T12:14:46.002Z,99744.11
2022-10-28T12:18:07.726Z,99738.92
2022-10-28T12:21:31.173Z,99741.84
2022-10-28T12:24:51.334Z,99738.33
2022-10-28T12:28:12.065Z,99738.53
2022-10-28T12:31:35.885Z,99732.33
2022-10-28T12:34:56.717Z,99733.98
2022-10-28T12:38:18.662Z,99729.42
2022-10-28T12:44:59.779Z,99722.77
2022-10-28T12:48:22.024Z,99722.19
2022-10-28T12:51:42.732Z,99713.72
2022-10-28T12:55:16.915Z,99716.19
2022-10-28T12:58:41.777Z,99708.57
2022-10-28T13:02:01.975Z,99709.61
2022-10-28T13:05:37.084Z,99715.19
2022-10-28T13:09:39.361Z,99706.30
2022-10-28T13:13:53.172Z,99708.34
2022-10-28T13:17:33.180Z,99702.97
2022-10-28T13:20:57.099Z,99706.08
2022-10-28T13:24:25.988Z,99714.15
2022-10-28T13:27:47.190Z,99705.88
2022-10-28T13:31:17.258Z,99703.77
2022-10-28T13:34:42.010Z,99702.51
2022-10-28T13:38:02.951Z,99698.95
2022-10-28T13:41:44.906Z,99699.10
2022-10-28T13:45:01.789Z,99696.41
2022-10-28T13:49:01.399Z,99698.68
2022-10-28T13:52:28.876Z,99704.06
2022-10-28T13:55:54.368Z,99697.64
2022-10-28T13:59:20.572Z,99696.60
2022-10-28T14:02:45.577Z,99699.48
2022-10-28T14:06:05.201Z,99697.25
2022-10-28T14:09:34.588Z,99689.61
2022-10-28T14:13:03.760Z,99693.17
2022-10-28T14:16:34.693Z,99687.86
2022-10-28T14:19:55.696Z,99694.50
2022-10-28T14:23:47.027Z,99692.07
2022-10-28T14:27:49.945Z,99683.84
2022-10-28T14:36:34.231Z,99686.67
2022-10-28T14:39:58.715Z,99688.56
2022-10-28T14:43:58.939Z,99679.13
2022-10-28T14:47:58.760Z,99673.98
2022-10-28T14:51:20.589Z,99677.54
2022-10-28T14:54:44.174Z,99678.81
2022-10-28T14:58:03.543Z,99683.38
2022-10-28T15:01:43.311Z,99679.09
2022-10-28T15:05:14.794Z,99679.75
2022-10-28T15:09:13.074Z,99671.30
2022-10-28T15:12:35.850Z,99668.25
2022-10-28T15:16:03.820Z,99658.78
2022-10-28T15:19:27.614Z,99660.66
2022-10-28T15:22:46.654Z,99671.83
2022-10-28T15:26:15.268Z,99671.03
2022-10-28T15:29:31.959Z,99667.52
2022-10-28T15:32:47.988Z,99663.17
2022-10-28T15:36:18.492Z,99666.27
2022-10-28T15:39:46.607Z,99667.70
2022-10-28T15:43:09.609Z,99664.39
2022-10-28T15:46:26.620Z,99657.17
2022-10-28T15:49:47.212Z,99657.36
2022-10-28T15:53:21.790Z,99650.52
2022-10-28T16:32:42.573Z,99659.62
2022-10-28T16:35:58.720Z,99666.36
2022-10-28T16:39:19.611Z,99662.63
2022-10-28T16:42:36.010Z,99659.27
2022-10-28T16:45:52.364Z,99664.55
2022-10-28T16:49:08.830Z,99676.41
2022-10-28T16:52:28.333Z,99672.20
2022-10-28T16:55:47.498Z,99667.00
2022-10-28T16:59:04.153Z,99661.20
2022-10-28T17:02:26.379Z,99663.11
2022-10-28T17:05:43.558Z,99672.08
2022-10-28T17:09:03.246Z,99673.29
2022-10-28T17:12:23.378Z,99666.41
2022-10-28T17:18:39.819Z,99665.20
2022-10-28T17:21:58.413Z,99662.64
2022-10-28T17:42:29.181Z,99670.59
2022-10-28T17:45:45.540Z,99654.28
2022-10-28T17:49:06.541Z,99662.88
2022-10-28T17:52:27.568Z,99661.41
2022-10-28T17:55:49.585Z,99660.02
2022-10-28T17:59:07.002Z,99654.77
2022-10-28T18:02:28.894Z,99655.96
2022-10-28T18:05:47.291Z,99653.76
2022-10-28T18:09:04.689Z,99647.22
2022-10-28T18:12:21.150Z,99639.68
2022-10-28T18:15:46.705Z,99639.95
2022-10-28T18:19:05.590Z,99634.61
2022-10-28T18:25:42.726Z,99628.66
2022-10-28T18:28:59.400Z,99630.02
2022-10-28T18:32:52.184Z,99620.19
2022-10-28T18:36:14.764Z,99614.00
2022-10-28T18:39:31.905Z,99621.74
2022-10-28T18:42:50.558Z,99634.45
2022-10-28T18:46:16.933Z,99621.66
2022-10-28T18:49:38.404Z,99614.48
2022-10-28T18:52:58.678Z,99618.89
2022-10-28T18:56:18.746Z,99616.41
2022-10-28T18:59:39.915Z,99611.92
2022-10-28T19:02:56.937Z,99610.07
2022-10-28T19:06:16.685Z,99609.42
2022-10-28T19:09:33.048Z,99614.41
2022-10-28T19:12:53.006Z,99615.02
2022-10-28T19:16:09.294Z,99615.67
2022-10-28T20:19:21.691Z,99624.72
2022-10-28T20:22:42.193Z,99624.05
2022-10-28T20:26:04.745Z,99634.90
2022-10-28T20:29:21.029Z,99636.56
2022-10-28T20:32:37.299Z,99638.25
2022-10-28T20:35:53.583Z,99633.63
2022-10-28T20:39:12.644Z,99629.83
2022-10-28T20:42:31.316Z,99642.04
2022-10-28T20:45:48.265Z,99647.70
2022-10-28T20:49:05.026Z,99655.77
2022-10-28T20:52:22.647Z,99658.59
2022-10-28T20:55:39.130Z,99658.66
2022-10-28T20:58:55.726Z,99656.22
2022-10-28T21:02:12.144Z,99656.40
2022-10-28T21:05:30.887Z,99656.55
2022-10-28T21:08:47.607Z,99655.55
2022-10-28T21:12:04.097Z,99657.39
2022-10-28T21:15:22.459Z,99650.41
2022-10-28T21:18:38.861Z,99650.41
2022-10-28T21:21:55.194Z,99639.98
2022-10-28T21:25:12.955Z,99646.30
2022-10-28T21:28:29.498Z,99641.52
2022-10-28T21:31:45.791Z,99643.55
2022-10-28T21:35:02.250Z,99634.44
2022-10-28T21:38:18.935Z,99634.59
2022-10-28T21:41:35.067Z,99626.16
2022-10-28T21:44:51.297Z,99625.81
2022-10-28T21:48:07.403Z,99629.33
2022-10-28T21:51:25.138Z,99626.17
2022-10-28T21:54:43.153Z,99619.20
2022-10-28T21:57:59.395Z,99624.34
2022-10-28T22:01:18.420Z,99620.68
2022-10-28T22:04:37.613Z,99620.68
2022-10-28T22:07:54.376Z,99618.69
2022-10-28T22:11:15.893Z,99609.70
2022-10-28T22:14:32.956Z,99605.20
2022-10-28T22:17:49.164Z,99605.38
2022-10-28T22:21:11.937Z,99607.55
2022-10-28T22:24:28.008Z,99600.58
2022-10-28T22:27:45.793Z,99597.61
2022-10-28T22:31:07.285Z,99595.95
2022-10-28T22:34:23.393Z,99594.64
2022-10-28T22:37:39.435Z,99600.96
2022-10-28T22:40:55.800Z,99602.83
2022-10-28T22:44:12.418Z,99594.48
2022-10-28T22:47:28.432Z,99587.05
2022-10-28T22:50:44.576Z,99581.42
2022-10-28T22:54:00.745Z,99589.40
2022-10-28T22:57:16.680Z,99587.91
2022-10-28T23:00:32.881Z,99589.91
2022-10-28T23:03:51.223Z,99584.27
2022-10-28T23:07:07.433Z,99588.08
2022-10-28T23:10:24.059Z,99590.42
2022-10-28T23:13:40.418Z,99586.25
2022-10-28T23:16:57.715Z,99592.42
2022-10-28T23:20:16.257Z,99592.42
2022-10-28T23:23:32.385Z,99582.29
2022-10-28T23:26:50.170Z,99580.13
2022-10-28T23:30:06.714Z,99580.30
2022-10-28T23:33:25.389Z,99582.47
2022-10-28T23:36:41.556Z,99580.66
2022-10-28T23:39:57.607Z,99572.52
2022-10-28T23:43:13.745Z,99567.55
2022-10-28T23:46:33.635Z,99566.56
2022-10-28T23:49:47.781Z,99565.08
2022-10-28T23:53:06.790Z,99555.59
2022-10-28T23:56:22.826Z,99561.92
2022-10-28T23:59:38.884Z,99549.32
